Terminal Aerodrome Forecast
Issued by NWS Memphis, TN

Current Version | Previous Version | Text Only | Print | Product List | Glossary On
Versions: 1 2 3 4 5 6 7 8 9 10 11 12 13 14 15 16 17
000
FTUS44 KMEG 302320
TAFMKL
TAF
KMKL 302320Z 3100/3124 VRB03KT P6SM FEW060 SCT250
     FM310800 17003KT P6SM FEW025 BKN060
     FM311200 19005KT P6SM VCSH SCT018 OVC025
      TEMPO 3113/3117 BKN018
     FM311900 25008KT P6SM VCSH BKN035=

USA.gov is the U.S. government's official web portal to all federal, state and local government web resources and services.